Time;durP1;ratioP1;P1;durP2;ratioP2;P2;SDS_P1;SDS_P2;PMS_P1;PMS_P2;Temp;Humidity;BMP_temperature;BMP_pressure;BME280_temperature;BME280_humidity;BME280_pressure;Samples;Min_cycle;Max_cycle;Signal;HPM_P1;HPM_P2
2023/02/03 00:00:57;;;;;;;;;;;9.10;99.90;;;;;;5051989;28;19924;-69
2023/02/03 00:03:24;;;;;;;;;;;9.10;99.90;;;;;;5049234;28;19978;-70
2023/02/03 00:05:51;;;;;;;;;;;9.10;99.90;;;;;;5049907;28;19960;-70
2023/02/03 00:08:18;;;;;;;;;;;9.10;99.90;;;;;;5049437;28;19983;-70
2023/02/03 00:10:45;;;;;;;;;;;9.00;99.90;;;;;;5050388;28;19933;-70
2023/02/03 00:13:14;;;;;;;;;;;9.10;99.90;;;;;;5045206;28;19955;-69
2023/02/03 00:15:40;;;;;;;;;;;9.10;99.90;;;;;;5047687;28;19929;-69
2023/02/03 00:18:07;;;;;;;;;;;9.10;99.90;;;;;;5048190;28;19924;-70
2023/02/03 00:20:34;;;;;;;;;;;9.10;99.90;;;;;;5052410;28;20011;-69
2023/02/03 00:23:04;;;;;;;;;;;9.10;99.90;;;;;;5044343;28;20032;-70
2023/02/03 00:25:32;;;;;;;;;;;9.10;99.90;;;;;;5053340;28;19925;-69
2023/02/03 00:27:58;;;;;;;;;;;9.20;99.90;;;;;;5046229;28;20388;-69
2023/02/03 00:30:26;;;;;;;;;;;9.20;99.90;;;;;;5051521;28;20273;-69
2023/02/03 00:32:53;;;;;;;;;;;9.20;99.90;;;;;;5045749;28;20292;-69
2023/02/03 00:35:20;;;;;;;;;;;9.20;99.90;;;;;;5048712;28;19929;-70
2023/02/03 00:37:50;;;;;;;;;;;9.20;99.90;;;;;;5047673;28;20454;-69
2023/02/03 00:40:17;;;;;;;;;;;9.20;99.90;;;;;;5049224;28;19931;-70
2023/02/03 00:42:44;;;;;;;;;;;9.20;99.90;;;;;;5044695;28;19925;-69
2023/02/03 00:45:10;;;;;;;;;;;9.20;99.90;;;;;;5041314;28;19935;-69
2023/02/03 00:47:39;;;;;;;;;;;9.20;99.90;;;;;;5048253;28;19931;-69
2023/02/03 00:50:06;;;;;;;;;;;9.20;99.90;;;;;;5048836;28;20394;-69
2023/02/03 00:52:33;;;;;;;;;;;9.20;99.90;;;;;;5046113;28;20428;-69
2023/02/03 00:54:59;;;;;;;;;;;9.20;99.90;;;;;;5048305;28;19925;-69
2023/02/03 00:57:26;;;;;;;;;;;9.20;99.90;;;;;;5045088;28;19924;-69
2023/02/03 00:59:53;;;;;;;;;;;9.20;99.90;;;;;;5044474;28;20406;-69
2023/02/03 01:02:20;;;;;;;;;;;9.20;99.90;;;;;;5048243;28;19929;-69
2023/02/03 01:04:48;;;;;;;;;;;9.20;99.90;;;;;;5047000;28;19924;-70
2023/02/03 01:07:15;;;;;;;;;;;9.30;99.90;;;;;;5047794;28;20023;-70
2023/02/03 01:09:41;;;;;;;;;;;9.20;99.90;;;;;;5048331;28;19935;-70
2023/02/03 01:12:08;;;;;;;;;;;9.30;99.90;;;;;;5044693;28;20475;-70
2023/02/03 01:14:35;;;;;;;;;;;9.30;99.90;;;;;;5044389;28;20023;-70
2023/02/03 01:17:01;;;;;;;;;;;9.30;99.90;;;;;;5049672;28;19924;-70
2023/02/03 01:19:28;;;;;;;;;;;9.30;99.90;;;;;;5047686;28;19924;-70
2023/02/03 01:21:56;;;;;;;;;;;9.30;99.90;;;;;;5048187;28;19931;-70
2023/02/03 01:24:23;;;;;;;;;;;9.20;99.90;;;;;;5047681;28;19925;-70
2023/02/03 01:26:49;;;;;;;;;;;9.30;99.90;;;;;;5053801;28;19979;-70
2023/02/03 01:29:16;;;;;;;;;;;9.30;99.90;;;;;;5047055;28;19925;-70
2023/02/03 01:31:43;;;;;;;;;;;9.30;99.90;;;;;;5044007;28;19925;-70
2023/02/03 01:34:11;;;;;;;;;;;9.20;99.90;;;;;;5048138;28;19931;-70
2023/02/03 01:36:38;;;;;;;;;;;9.30;99.90;;;;;;5048324;28;20387;-69
2023/02/03 01:39:06;;;;;;;;;;;9.30;99.90;;;;;;5046157;28;20433;-70
2023/02/03 01:41:34;;;;;;;;;;;9.20;99.90;;;;;;5049739;28;20283;-70
2023/02/03 01:44:01;;;;;;;;;;;9.30;99.90;;;;;;5042541;28;19933;-70
2023/02/03 01:46:30;;;;;;;;;;;9.30;99.90;;;;;;5046096;28;19931;-70
2023/02/03 01:49:01;;;;;;;;;;;9.30;99.90;;;;;;5047007;28;19925;-70
2023/02/03 01:51:28;;;;;;;;;;;9.30;99.90;;;;;;5042768;28;19925;-70
2023/02/03 01:53:56;;;;;;;;;;;9.20;99.90;;;;;;5043601;28;19931;-70
2023/02/03 01:56:25;;;;;;;;;;;9.30;99.90;;;;;;5046968;28;19931;-70
2023/02/03 01:58:53;;;;;;;;;;;9.30;99.90;;;;;;5045437;28;19929;-70
2023/02/03 02:01:20;;;;;;;;;;;9.20;99.90;;;;;;5045425;28;20416;-70
2023/02/03 02:03:48;;;;;;;;;;;9.20;99.90;;;;;;5046254;28;19979;-71
2023/02/03 02:06:15;;;;;;;;;;;9.20;99.90;;;;;;5055084;28;19924;-70
2023/02/03 02:08:42;;;;;;;;;;;9.30;99.90;;;;;;5048372;28;20355;-70
2023/02/03 02:11:09;;;;;;;;;;;9.30;99.90;;;;;;5050011;28;20019;-70
2023/02/03 02:13:38;;;;;;;;;;;9.20;99.90;;;;;;5045831;28;19963;-70
2023/02/03 02:16:08;;;;;;;;;;;9.30;99.90;;;;;;5048270;28;19924;-71
2023/02/03 02:18:40;;;;;;;;;;;9.20;99.90;;;;;;5047791;28;19929;-70
2023/02/03 02:21:16;;;;;;;;;;;9.20;99.90;;;;;;5043978;28;19931;-70
2023/02/03 02:24:04;;;;;;;;;;;9.20;99.90;;;;;;5049015;28;19925;-70
2023/02/03 02:26:39;;;;;;;;;;;9.20;99.90;;;;;;5048867;28;19968;-70
2023/02/03 02:29:26;;;;;;;;;;;9.20;99.90;;;;;;5048145;28;19960;-70
2023/02/03 02:32:03;;;;;;;;;;;9.20;99.90;;;;;;5050089;28;19924;-70
2023/02/03 02:34:36;;;;;;;;;;;9.20;99.90;;;;;;5048857;28;19924;-70
2023/02/03 02:37:07;;;;;;;;;;;9.20;99.90;;;;;;5049269;28;20443;-70
2023/02/03 02:39:38;;;;;;;;;;;9.20;99.90;;;;;;5049652;28;19947;-70
2023/02/03 02:42:07;;;;;;;;;;;9.20;99.90;;;;;;5047947;28;20426;-70
2023/02/03 02:44:36;;;;;;;;;;;9.20;99.90;;;;;;5048728;28;19925;-69
2023/02/03 02:47:07;;;;;;;;;;;9.20;99.90;;;;;;5052038;28;19925;-70
2023/02/03 02:49:37;;;;;;;;;;;9.20;99.90;;;;;;5052010;28;20571;-70
2023/02/03 02:52:05;;;;;;;;;;;9.20;99.90;;;;;;5052009;28;19928;-69
2023/02/03 02:54:33;;;;;;;;;;;9.20;99.90;;;;;;5051062;28;19950;-69
2023/02/03 02:57:01;;;;;;;;;;;9.20;99.90;;;;;;5041466;28;20100;-68
2023/02/03 02:59:28;;;;;;;;;;;9.20;99.90;;;;;;5051447;28;19925;-69
2023/02/03 03:01:54;;;;;;;;;;;9.20;99.90;;;;;;5052332;28;19929;-69
2023/02/03 03:04:24;;;;;;;;;;;9.20;99.90;;;;;;5050333;28;20376;-70
2023/02/03 03:06:53;;;;;;;;;;;9.20;99.90;;;;;;5051091;28;19925;-68
2023/02/03 03:09:22;;;;;;;;;;;9.20;99.90;;;;;;5049710;28;19960;-68
2023/02/03 03:11:50;;;;;;;;;;;9.20;99.90;;;;;;5053546;28;20420;-68
2023/02/03 03:14:18;;;;;;;;;;;9.20;99.90;;;;;;5049752;28;20039;-69
2023/02/03 03:16:48;;;;;;;;;;;9.20;99.90;;;;;;5039729;28;19925;-69
2023/02/03 03:19:18;;;;;;;;;;;9.20;99.90;;;;;;5048274;28;19931;-68
2023/02/03 03:21:53;;;;;;;;;;;9.20;99.90;;;;;;5051334;28;19931;-69
2023/02/03 03:24:22;;;;;;;;;;;9.20;99.90;;;;;;5048311;28;20019;-70
2023/02/03 03:26:51;;;;;;;;;;;9.20;99.90;;;;;;5045228;28;19969;-70
2023/02/03 03:29:20;;;;;;;;;;;9.20;99.90;;;;;;5046575;28;19933;-70
2023/02/03 03:31:47;;;;;;;;;;;9.20;99.90;;;;;;5045240;28;20359;-70
2023/02/03 03:34:14;;;;;;;;;;;9.20;99.90;;;;;;5050273;28;19924;-70
2023/02/03 03:36:45;;;;;;;;;;;9.20;99.90;;;;;;5044461;28;20400;-70
2023/02/03 03:39:13;;;;;;;;;;;9.20;99.90;;;;;;5051042;28;19956;-70
2023/02/03 03:41:42;;;;;;;;;;;9.20;99.90;;;;;;5053218;28;19925;-71
2023/02/03 03:44:12;;;;;;;;;;;9.20;99.90;;;;;;5051332;28;19963;-70
2023/02/03 03:46:43;;;;;;;;;;;9.20;99.90;;;;;;5049814;28;19924;-69
2023/02/03 03:49:10;;;;;;;;;;;9.20;99.90;;;;;;5051367;28;19931;-69
2023/02/03 03:51:40;;;;;;;;;;;9.20;99.90;;;;;;5048759;28;19924;-69
2023/02/03 03:54:08;;;;;;;;;;;9.20;99.90;;;;;;5046924;28;19925;-72
2023/02/03 03:56:40;;;;;;;;;;;9.20;99.90;;;;;;5052719;28;20011;-69
2023/02/03 03:59:08;;;;;;;;;;;9.20;99.90;;;;;;5050049;28;19978;-69
2023/02/03 04:01:35;;;;;;;;;;;9.20;99.90;;;;;;5050675;28;20299;-70
2023/02/03 04:04:05;;;;;;;;;;;9.20;99.90;;;;;;5050679;28;20397;-69
2023/02/03 04:06:32;;;;;;;;;;;9.20;99.90;;;;;;5052332;28;19931;-69
2023/02/03 04:09:00;;;;;;;;;;;9.20;99.90;;;;;;5048473;28;19974;-69
2023/02/03 04:14:12;;;;;;;;;;;9.20;99.90;;;;;;5049106;28;19931;-69
2023/02/03 04:16:39;;;;;;;;;;;9.20;99.90;;;;;;5048830;28;19925;-69
2023/02/03 04:19:06;;;;;;;;;;;9.20;99.90;;;;;;5049419;28;20334;-69
2023/02/03 04:21:33;;;;;;;;;;;9.20;99.90;;;;;;5051208;28;20015;-69
2023/02/03 04:23:59;;;;;;;;;;;9.20;99.90;;;;;;5049475;28;19972;-69
2023/02/03 04:26:26;;;;;;;;;;;9.20;99.90;;;;;;5051224;28;19925;-70
2023/02/03 04:28:53;;;;;;;;;;;9.20;99.90;;;;;;5047159;28;19931;-69
2023/02/03 04:31:21;;;;;;;;;;;9.20;99.90;;;;;;5044403;28;19931;-69
2023/02/03 04:33:47;;;;;;;;;;;9.20;99.90;;;;;;5049338;28;20365;-69
2023/02/03 04:36:15;;;;;;;;;;;9.20;99.90;;;;;;5050555;28;19929;-69
2023/02/03 04:38:41;;;;;;;;;;;9.20;99.90;;;;;;5048303;28;19924;-70
2023/02/03 04:41:08;;;;;;;;;;;9.20;99.90;;;;;;5042930;28;20011;-69
2023/02/03 04:43:35;;;;;;;;;;;9.20;99.90;;;;;;5044913;28;20012;-69
2023/02/03 04:46:01;;;;;;;;;;;9.20;99.90;;;;;;5051063;28;19939;-69
2023/02/03 04:48:29;;;;;;;;;;;9.20;99.90;;;;;;5053801;28;20436;-69
2023/02/03 04:51:00;;;;;;;;;;;9.20;99.90;;;;;;5051255;28;20303;-69
2023/02/03 04:53:27;;;;;;;;;;;9.20;99.90;;;;;;5047017;28;19928;-69
2023/02/03 04:55:53;;;;;;;;;;;9.20;99.90;;;;;;5047367;28;19976;-69
2023/02/03 04:58:20;;;;;;;;;;;9.20;99.90;;;;;;5044521;28;20011;-68
2023/02/03 05:00:47;;;;;;;;;;;9.20;99.90;;;;;;5049469;28;19939;-69
2023/02/03 05:03:13;;;;;;;;;;;9.20;99.90;;;;;;5049189;28;19925;-69
2023/02/03 05:05:41;;;;;;;;;;;9.20;99.90;;;;;;5049906;28;20471;-69
2023/02/03 05:08:08;;;;;;;;;;;9.20;99.90;;;;;;5048681;28;20290;-69
2023/02/03 05:10:35;;;;;;;;;;;9.20;99.90;;;;;;5049548;28;19938;-69
2023/02/03 05:13:01;;;;;;;;;;;9.20;99.90;;;;;;5047725;28;19925;-69
2023/02/03 05:15:28;;;;;;;;;;;9.20;99.90;;;;;;5048353;28;20011;-69
2023/02/03 05:17:55;;;;;;;;;;;9.20;99.90;;;;;;5048201;28;19931;-69
2023/02/03 05:20:22;;;;;;;;;;;9.20;99.90;;;;;;5042599;28;20011;-69
2023/02/03 05:22:50;;;;;;;;;;;9.20;99.90;;;;;;5049069;28;19932;-70
2023/02/03 05:25:17;;;;;;;;;;;9.20;99.90;;;;;;5049856;28;19925;-69
2023/02/03 05:27:43;;;;;;;;;;;9.20;99.90;;;;;;5047251;28;19956;-70
2023/02/03 05:30:11;;;;;;;;;;;9.20;99.90;;;;;;5048266;28;20406;-70
2023/02/03 05:32:37;;;;;;;;;;;9.20;99.90;;;;;;5044063;28;19931;-70
2023/02/03 05:35:04;;;;;;;;;;;9.20;99.90;;;;;;5048164;28;19925;-70
2023/02/03 05:37:31;;;;;;;;;;;9.20;99.90;;;;;;5047774;28;20651;-70
2023/02/03 05:41:51;;;;;;;;;;;9.20;99.90;;;;;;5049627;28;19931;-70
2023/02/03 05:42:48;;;;;;;;;;;9.20;99.90;;;;;;5046845;28;19933;-69
2023/02/03 05:45:14;;;;;;;;;;;9.20;99.90;;;;;;5049174;28;19931;-70
2023/02/03 05:47:41;;;;;;;;;;;9.20;99.90;;;;;;5047485;28;19932;-70
2023/02/03 05:50:08;;;;;;;;;;;9.20;99.90;;;;;;5048709;28;19967;-70
2023/02/03 05:52:34;;;;;;;;;;;9.30;99.90;;;;;;5048354;28;19925;-70
2023/02/03 05:55:03;;;;;;;;;;;9.30;99.90;;;;;;5048443;28;20023;-70
2023/02/03 05:57:30;;;;;;;;;;;9.20;99.90;;;;;;5047411;28;19967;-70
2023/02/03 05:59:56;;;;;;;;;;;9.20;99.90;;;;;;5048564;28;19931;-70
2023/02/03 06:02:23;;;;;;;;;;;9.20;99.90;;;;;;5048308;28;19925;-70
2023/02/03 06:04:49;;;;;;;;;;;9.20;99.90;;;;;;5047443;28;20019;-69
2023/02/03 06:07:16;;;;;;;;;;;9.20;99.90;;;;;;5037782;28;19925;-70
2023/02/03 06:09:43;;;;;;;;;;;9.30;99.90;;;;;;5048197;28;20047;-69
2023/02/03 06:12:11;;;;;;;;;;;9.30;99.90;;;;;;5049630;28;20011;-69
2023/02/03 06:14:38;;;;;;;;;;;9.20;99.90;;;;;;5045520;28;20019;-70
2023/02/03 06:17:04;;;;;;;;;;;9.20;99.90;;;;;;5048679;28;20386;-69
2023/02/03 06:19:31;;;;;;;;;;;9.20;99.90;;;;;;5046348;28;19929;-69
2023/02/03 06:21:57;;;;;;;;;;;9.20;99.90;;;;;;5047516;28;20328;-69
2023/02/03 06:24:24;;;;;;;;;;;9.20;99.90;;;;;;5044458;28;20043;-69
2023/02/03 06:26:51;;;;;;;;;;;9.20;99.90;;;;;;5040501;28;19956;-69
2023/02/03 06:29:19;;;;;;;;;;;9.30;99.90;;;;;;5044969;28;19976;-72
2023/02/03 06:31:46;;;;;;;;;;;9.30;99.90;;;;;;5037522;28;20013;-72
2023/02/03 06:34:13;;;;;;;;;;;9.30;99.90;;;;;;5036120;28;19925;-72
2023/02/03 06:36:43;;;;;;;;;;;9.30;99.90;;;;;;5044977;28;19925;-70
2023/02/03 06:39:09;;;;;;;;;;;9.20;99.90;;;;;;5047801;28;20376;-70
2023/02/03 06:41:36;;;;;;;;;;;9.20;99.90;;;;;;5042574;28;19924;-71
2023/02/03 06:44:03;;;;;;;;;;;9.20;99.90;;;;;;5047321;28;20334;-72
2023/02/03 06:46:34;;;;;;;;;;;9.20;99.90;;;;;;5047029;28;20017;-72
2023/02/03 06:49:01;;;;;;;;;;;9.10;99.90;;;;;;5040496;28;19925;-71
2023/02/03 06:51:28;;;;;;;;;;;9.10;99.90;;;;;;5044638;28;19979;-69
2023/02/03 06:53:55;;;;;;;;;;;9.10;99.90;;;;;;5044370;28;19935;-71
2023/02/03 06:56:21;;;;;;;;;;;9.20;99.90;;;;;;5047157;28;19967;-70
2023/02/03 06:58:48;;;;;;;;;;;9.20;99.90;;;;;;5035056;28;19925;-69
2023/02/03 07:01:15;;;;;;;;;;;9.20;99.90;;;;;;5034512;28;19933;-70
2023/02/03 07:03:43;;;;;;;;;;;9.30;99.90;;;;;;5037743;28;19925;-71
2023/02/03 07:06:09;;;;;;;;;;;9.30;99.90;;;;;;5037796;28;19925;-74
2023/02/03 07:08:36;;;;;;;;;;;9.30;99.90;;;;;;5040351;28;19931;-74
2023/02/03 07:11:03;;;;;;;;;;;9.30;99.90;;;;;;5041147;28;19947;-73
2023/02/03 07:13:30;;;;;;;;;;;9.30;99.90;;;;;;5039623;28;19943;-70
2023/02/03 07:15:57;;;;;;;;;;;9.30;99.90;;;;;;5039647;28;20479;-70
2023/02/03 07:18:25;;;;;;;;;;;9.30;99.90;;;;;;5039275;28;20175;-71
2023/02/03 07:20:53;;;;;;;;;;;9.30;99.90;;;;;;5044843;28;19924;-71
2023/02/03 07:23:20;;;;;;;;;;;9.40;99.90;;;;;;5044381;28;19925;-69
2023/02/03 07:25:46;;;;;;;;;;;9.40;99.90;;;;;;5045467;28;20016;-69
2023/02/03 07:28:13;;;;;;;;;;;9.40;99.90;;;;;;5041052;28;19929;-68
2023/02/03 07:30:40;;;;;;;;;;;9.40;99.90;;;;;;5048140;28;20028;-70
2023/02/03 07:33:06;;;;;;;;;;;9.40;99.90;;;;;;5044770;28;20015;-70
2023/02/03 07:35:33;;;;;;;;;;;9.30;99.90;;;;;;5052162;28;19932;-71
2023/02/03 07:38:01;;;;;;;;;;;9.40;99.90;;;;;;5048314;28;20388;-71
2023/02/03 07:40:28;;;;;;;;;;;9.40;99.90;;;;;;5050510;28;20023;-71
2023/02/03 07:42:55;;;;;;;;;;;9.40;99.90;;;;;;5048793;28;20019;-71
2023/02/03 07:45:23;;;;;;;;;;;9.40;99.90;;;;;;5051717;28;19931;-71
2023/02/03 07:47:50;;;;;;;;;;;9.50;99.90;;;;;;5049209;28;20335;-71
2023/02/03 07:50:17;;;;;;;;;;;9.40;99.90;;;;;;5057279;28;20350;-71
2023/02/03 07:52:43;;;;;;;;;;;9.50;99.90;;;;;;5048035;28;19929;-71
2023/02/03 07:55:11;;;;;;;;;;;9.50;99.90;;;;;;5049500;28;19932;-71
2023/02/03 07:57:42;;;;;;;;;;;9.50;99.90;;;;;;5047833;28;19925;-71
2023/02/03 08:00:09;;;;;;;;;;;9.50;99.90;;;;;;5050134;28;20107;-71
2023/02/03 08:02:36;;;;;;;;;;;9.50;99.90;;;;;;5049531;28;20339;-71
2023/02/03 08:05:03;;;;;;;;;;;9.50;99.90;;;;;;5052928;28;19932;-70
2023/02/03 08:07:29;;;;;;;;;;;9.50;99.90;;;;;;5046815;28;20011;-70
2023/02/03 08:09:56;;;;;;;;;;;9.50;99.90;;;;;;5047611;28;21835;-70
2023/02/03 08:12:24;;;;;;;;;;;9.50;99.90;;;;;;5048224;28;19925;-71
2023/02/03 08:14:51;;;;;;;;;;;9.50;99.90;;;;;;5047910;28;19971;-73
2023/02/03 08:17:18;;;;;;;;;;;9.50;99.90;;;;;;5052236;28;20019;-71
2023/02/03 08:19:44;;;;;;;;;;;9.50;99.90;;;;;;5048611;28;19964;-69
2023/02/03 08:22:14;;;;;;;;;;;9.50;99.90;;;;;;5051212;28;19925;-71
2023/02/03 08:24:44;;;;;;;;;;;9.60;99.90;;;;;;5046079;28;19929;-71
2023/02/03 08:27:11;;;;;;;;;;;9.60;99.90;;;;;;5048777;28;19947;-71
2023/02/03 08:29:39;;;;;;;;;;;9.60;99.90;;;;;;5046644;28;19936;-71
2023/02/03 08:32:08;;;;;;;;;;;9.70;99.90;;;;;;5036870;28;20067;-71
2023/02/03 08:34:35;;;;;;;;;;;9.70;99.90;;;;;;5043831;28;19979;-70
2023/02/03 08:37:02;;;;;;;;;;;9.70;99.90;;;;;;5042691;28;19924;-72
2023/02/03 08:39:28;;;;;;;;;;;9.70;99.90;;;;;;5047957;28;20022;-72
2023/02/03 08:41:55;;;;;;;;;;;9.70;99.90;;;;;;5048339;28;20318;-71
2023/02/03 08:44:22;;;;;;;;;;;9.70;99.90;;;;;;5041227;28;20365;-72
2023/02/03 08:46:51;;;;;;;;;;;9.70;99.90;;;;;;5044584;28;19971;-71
2023/02/03 08:49:17;;;;;;;;;;;9.70;99.90;;;;;;5048276;28;19925;-72
2023/02/03 08:51:44;;;;;;;;;;;9.70;99.90;;;;;;5045757;28;19993;-72
2023/02/03 08:54:11;;;;;;;;;;;9.80;99.90;;;;;;5048598;28;19925;-72
2023/02/03 08:56:38;;;;;;;;;;;9.70;99.90;;;;;;5048122;28;19924;-72
2023/02/03 08:59:05;;;;;;;;;;;9.80;99.90;;;;;;5045259;28;19929;-72
2023/02/03 09:01:31;;;;;;;;;;;9.80;99.90;;;;;;5044114;28;20007;-72
2023/02/03 09:04:02;;;;;;;;;;;9.90;99.90;;;;;;5020054;28;19928;-72
2023/02/03 09:06:32;;;;;;;;;;;9.90;99.90;;;;;;5040178;28;19925;-73
2023/02/03 09:08:59;;;;;;;;;;;9.90;99.90;;;;;;5043063;28;19925;-72
2023/02/03 09:11:28;;;;;;;;;;;9.90;99.90;;;;;;5041099;28;19926;-72
2023/02/03 09:13:56;;;;;;;;;;;9.90;99.90;;;;;;5045555;28;20305;-73
2023/02/03 09:16:29;;;;;;;;;;;9.80;99.90;;;;;;5045235;28;19951;-72
2023/02/03 09:18:56;;;;;;;;;;;9.80;99.90;;;;;;5040012;28;19933;-74
2023/02/03 09:21:25;;;;;;;;;;;9.80;99.90;;;;;;5045621;28;20351;-72
2023/02/03 09:23:51;;;;;;;;;;;9.90;99.90;;;;;;5044692;28;19925;-72
2023/02/03 09:26:18;;;;;;;;;;;9.90;99.90;;;;;;5044340;28;19925;-72
2023/02/03 09:28:45;;;;;;;;;;;9.90;99.90;;;;;;5044104;28;20019;-73
2023/02/03 09:31:14;;;;;;;;;;;10.00;99.90;;;;;;5043256;28;19966;-71
2023/02/03 09:33:50;;;;;;;;;;;10.00;99.90;;;;;;5046888;28;20155;-72
2023/02/03 09:36:17;;;;;;;;;;;10.00;99.90;;;;;;5038340;28;19925;-72
2023/02/03 09:38:45;;;;;;;;;;;10.00;99.90;;;;;;5042912;28;20410;-73
2023/02/03 09:41:16;;;;;;;;;;;10.00;99.90;;;;;;5047066;28;20293;-72
2023/02/03 09:43:46;;;;;;;;;;;10.10;99.90;;;;;;5042334;28;20019;-73
2023/02/03 09:46:16;;;;;;;;;;;10.00;99.90;;;;;;5043102;28;20342;-71
2023/02/03 09:48:44;;;;;;;;;;;10.00;99.90;;;;;;5044297;28;20034;-73
2023/02/03 09:51:20;;;;;;;;;;;10.10;99.90;;;;;;5042654;28;20072;-71
2023/02/03 09:53:52;;;;;;;;;;;10.10;99.90;;;;;;5035565;28;19978;-72
2023/02/03 09:56:23;;;;;;;;;;;10.20;99.90;;;;;;5039745;28;19936;-72
2023/02/03 09:58:50;;;;;;;;;;;10.30;99.90;;;;;;5036847;28;19924;-73
2023/02/03 10:01:18;;;;;;;;;;;10.40;99.90;;;;;;5036894;28;20418;-72
2023/02/03 10:03:47;;;;;;;;;;;10.50;99.90;;;;;;5037832;28;19937;-72
2023/02/03 10:06:20;;;;;;;;;;;10.50;99.90;;;;;;5034516;28;20015;-72
2023/02/03 10:08:59;;;;;;;;;;;10.60;99.90;;;;;;5037294;28;20024;-72
2023/02/03 10:11:31;;;;;;;;;;;10.70;99.90;;;;;;5040692;28;20301;-73
2023/02/03 10:14:05;;;;;;;;;;;10.90;99.90;;;;;;5037593;28;19929;-72
2023/02/03 10:16:43;;;;;;;;;;;11.00;99.90;;;;;;5039714;28;20303;-73
2023/02/03 10:19:13;;;;;;;;;;;10.90;99.90;;;;;;5037150;28;20393;-73
2023/02/03 10:21:48;;;;;;;;;;;11.00;99.90;;;;;;5035947;28;20444;-72
2023/02/03 10:24:26;;;;;;;;;;;11.00;99.90;;;;;;5039654;28;20024;-73
2023/02/03 10:26:54;;;;;;;;;;;10.90;99.90;;;;;;5041916;28;20020;-72
2023/02/03 10:29:23;;;;;;;;;;;10.90;99.90;;;;;;5041176;28;19925;-73
2023/02/03 10:31:50;;;;;;;;;;;10.90;99.90;;;;;;5038919;28;19972;-72
2023/02/03 10:34:18;;;;;;;;;;;10.80;99.90;;;;;;5042296;28;20059;-73
2023/02/03 10:36:52;;;;;;;;;;;10.80;99.90;;;;;;5034738;28;19964;-72
2023/02/03 10:39:23;;;;;;;;;;;10.70;99.90;;;;;;5037591;28;20028;-73
2023/02/03 10:41:51;;;;;;;;;;;10.70;99.90;;;;;;5043464;28;19932;-73
2023/02/03 10:44:18;;;;;;;;;;;10.70;99.90;;;;;;5037802;28;20012;-75
2023/02/03 10:46:45;;;;;;;;;;;10.70;99.90;;;;;;5039742;28;19924;-72
2023/02/03 10:49:12;;;;;;;;;;;10.70;99.90;;;;;;5034713;28;19939;-74
2023/02/03 10:51:40;;;;;;;;;;;10.70;99.90;;;;;;5038507;28;19932;-73
2023/02/03 10:54:25;;;;;;;;;;;10.70;99.90;;;;;;5039481;28;20032;-74
2023/02/03 10:56:56;;;;;;;;;;;10.70;99.90;;;;;;5039327;28;19933;-73
2023/02/03 10:59:28;;;;;;;;;;;10.80;99.90;;;;;;5038398;28;19947;-73
2023/02/03 11:01:55;;;;;;;;;;;10.80;99.90;;;;;;5035344;28;20351;-73
2023/02/03 11:04:25;;;;;;;;;;;10.80;99.90;;;;;;5037625;28;19925;-72
2023/02/03 11:06:54;;;;;;;;;;;10.70;99.90;;;;;;5040996;28;19935;-73
2023/02/03 11:09:24;;;;;;;;;;;10.60;99.90;;;;;;5042344;28;19940;-73
2023/02/03 11:12:05;;;;;;;;;;;10.70;99.90;;;;;;5042377;28;20264;-71
2023/02/03 11:14:36;;;;;;;;;;;10.70;99.90;;;;;;5045500;28;19925;-71
2023/02/03 11:17:07;;;;;;;;;;;10.70;99.90;;;;;;5045558;28;19959;-72
2023/02/03 11:19:34;;;;;;;;;;;10.60;99.90;;;;;;5042511;28;20015;-72
2023/02/03 11:22:00;;;;;;;;;;;10.50;99.90;;;;;;5044759;28;20877;-72
2023/02/03 11:24:28;;;;;;;;;;;10.50;99.90;;;;;;5039581;28;20019;-72
2023/02/03 11:26:57;;;;;;;;;;;10.50;99.90;;;;;;5044844;28;20035;-72
2023/02/03 11:29:27;;;;;;;;;;;10.60;99.90;;;;;;5043682;28;20028;-71
2023/02/03 11:31:57;;;;;;;;;;;10.60;99.90;;;;;;5037215;28;19925;-71
2023/02/03 11:34:25;;;;;;;;;;;10.70;99.90;;;;;;5043884;28;19976;-71
2023/02/03 11:36:52;;;;;;;;;;;10.70;99.90;;;;;;5040884;28;20774;-70
2023/02/03 11:39:21;;;;;;;;;;;10.70;99.90;;;;;;5046555;28;20007;-72
2023/02/03 11:41:48;;;;;;;;;;;10.70;99.90;;;;;;5039292;28;19940;-72
2023/02/03 11:44:20;;;;;;;;;;;10.70;99.90;;;;;;5041010;28;20370;-73
2023/02/03 11:46:49;;;;;;;;;;;10.70;99.90;;;;;;5041322;28;19925;-74
2023/02/03 11:49:46;;;;;;;;;;;10.70;99.90;;;;;;5038471;28;19925;-71
2023/02/03 11:52:27;;;;;;;;;;;10.70;99.90;;;;;;5043361;28;19939;-72
2023/02/03 11:55:02;;;;;;;;;;;10.70;99.90;;;;;;5042642;28;19969;-74
2023/02/03 11:57:34;;;;;;;;;;;10.80;99.90;;;;;;5043743;28;19943;-73
2023/02/03 12:00:04;;;;;;;;;;;10.80;99.90;;;;;;5045348;28;19940;-73
2023/02/03 12:02:41;;;;;;;;;;;10.80;99.90;;;;;;5044175;28;19931;-73
2023/02/03 12:05:26;;;;;;;;;;;10.80;99.90;;;;;;5039376;28;20071;-74
2023/02/03 12:08:03;;;;;;;;;;;10.90;99.90;;;;;;5029339;28;19929;-72
2023/02/03 12:10:37;;;;;;;;;;;11.00;99.90;;;;;;5041073;28;20446;-72
2023/02/03 12:13:11;;;;;;;;;;;11.00;99.90;;;;;;5042669;28;19994;-72
2023/02/03 12:15:49;;;;;;;;;;;11.00;99.90;;;;;;5044796;28;19924;-73
2023/02/03 12:18:22;;;;;;;;;;;10.90;99.90;;;;;;5048361;28;19925;-73
2023/02/03 12:20:56;;;;;;;;;;;10.90;99.90;;;;;;5048543;28;19925;-73
2023/02/03 12:23:29;;;;;;;;;;;10.90;99.90;;;;;;5039838;28;19928;-72
2023/02/03 12:26:01;;;;;;;;;;;10.90;99.90;;;;;;5042166;28;19939;-73
2023/02/03 12:28:34;;;;;;;;;;;10.90;99.90;;;;;;5039740;28;20052;-73
2023/02/03 12:31:04;;;;;;;;;;;10.90;99.90;;;;;;5044435;28;20003;-73
2023/02/03 12:33:34;;;;;;;;;;;11.00;99.90;;;;;;5038628;28;19952;-72
2023/02/03 12:36:07;;;;;;;;;;;11.00;99.90;;;;;;5044476;28;20339;-73
2023/02/03 12:38:36;;;;;;;;;;;11.00;99.90;;;;;;5038056;28;20425;-71
2023/02/03 12:41:07;;;;;;;;;;;11.00;99.90;;;;;;5048660;28;20015;-71
2023/02/03 12:43:36;;;;;;;;;;;11.00;99.90;;;;;;5042615;28;20027;-71
2023/02/03 12:46:06;;;;;;;;;;;11.10;99.90;;;;;;5045822;28;19925;-72
2023/02/03 12:48:39;;;;;;;;;;;11.00;99.90;;;;;;5040518;28;19985;-73
2023/02/03 12:51:08;;;;;;;;;;;11.10;99.90;;;;;;5044696;28;20650;-74
2023/02/03 12:53:36;;;;;;;;;;;11.10;99.90;;;;;;5042937;28;19931;-74
2023/02/03 12:56:04;;;;;;;;;;;11.20;99.90;;;;;;5040246;28;19928;-74
2023/02/03 12:58:33;;;;;;;;;;;11.30;99.90;;;;;;5039601;28;19975;-74
2023/02/03 13:01:03;;;;;;;;;;;11.30;99.90;;;;;;5042885;28;20011;-74
2023/02/03 13:03:34;;;;;;;;;;;11.40;99.90;;;;;;5039555;28;19964;-73
2023/02/03 13:06:08;;;;;;;;;;;11.40;99.90;;;;;;5043182;28;20295;-74
2023/02/03 13:08:36;;;;;;;;;;;11.30;99.90;;;;;;5047398;28;19979;-74
2023/02/03 13:11:12;;;;;;;;;;;11.20;99.90;;;;;;5043694;28;19931;-74
2023/02/03 13:13:42;;;;;;;;;;;11.20;99.90;;;;;;5036667;28;19929;-74
2023/02/03 13:16:10;;;;;;;;;;;11.30;99.90;;;;;;5043334;28;19925;-73
2023/02/03 13:18:37;;;;;;;;;;;11.30;99.90;;;;;;5042110;28;19929;-72
2023/02/03 13:21:06;;;;;;;;;;;11.30;99.90;;;;;;5043486;28;19967;-72
2023/02/03 13:23:32;;;;;;;;;;;11.30;99.90;;;;;;5040894;28;19925;-72
2023/02/03 13:26:15;;;;;;;;;;;11.30;99.90;;;;;;5040461;28;19968;-73
2023/02/03 13:28:50;;;;;;;;;;;11.40;99.90;;;;;;5039488;28;19925;-72
2023/02/03 13:31:23;;;;;;;;;;;11.40;99.90;;;;;;5044403;28;19928;-72
2023/02/03 13:33:59;;;;;;;;;;;11.30;99.90;;;;;;5038697;28;20287;-72
2023/02/03 13:36:59;;;;;;;;;;;11.40;99.90;;;;;;5041992;28;20693;-80
2023/02/03 13:39:35;;;;;;;;;;;11.40;99.90;;;;;;5043122;28;19925;-78
2023/02/03 13:42:12;;;;;;;;;;;11.30;99.90;;;;;;5044105;28;19935;-79
2023/02/03 13:44:39;;;;;;;;;;;11.40;99.90;;;;;;5046757;28;19978;-79
2023/02/03 13:47:06;;;;;;;;;;;11.30;99.90;;;;;;5050685;28;20291;-72
2023/02/03 13:49:34;;;;;;;;;;;11.30;99.90;;;;;;5044176;28;20015;-72
2023/02/03 13:52:01;;;;;;;;;;;11.40;99.90;;;;;;5039806;28;20700;-72
2023/02/03 13:54:29;;;;;;;;;;;11.40;99.90;;;;;;5039373;28;20299;-71
2023/02/03 13:57:01;;;;;;;;;;;11.30;99.90;;;;;;5043817;28;20067;-72
2023/02/03 13:59:31;;;;;;;;;;;11.30;99.90;;;;;;5041708;28;20062;-72
2023/02/03 14:02:13;;;;;;;;;;;11.30;99.90;;;;;;5038028;28;19990;-73
2023/02/03 14:05:02;;;;;;;;;;;11.30;99.90;;;;;;5035027;28;21111;-72
2023/02/03 14:07:32;;;;;;;;;;;11.30;99.90;;;;;;5040066;28;19925;-71
2023/02/03 14:10:20;;;;;;;;;;;11.30;99.90;;;;;;5040380;28;21406;-72
2023/02/03 14:12:58;;;;;;;;;;;11.30;99.90;;;;;;5037239;28;20006;-71
2023/02/03 14:15:30;;;;;;;;;;;11.30;99.90;;;;;;5047976;28;19932;-70
2023/02/03 14:17:59;;;;;;;;;;;11.30;99.90;;;;;;5046050;28;20262;-71
2023/02/03 14:20:46;;;;;;;;;;;11.30;99.90;;;;;;5041038;28;19931;-72
2023/02/03 14:23:16;;;;;;;;;;;11.30;99.90;;;;;;5040135;28;19924;-71
2023/02/03 14:25:45;;;;;;;;;;;11.30;99.90;;;;;;5042171;28;19941;-72
2023/02/03 14:28:14;;;;;;;;;;;11.30;99.90;;;;;;5037889;28;20027;-71
2023/02/03 14:31:00;;;;;;;;;;;11.30;99.90;;;;;;5046162;28;19937;-72
2023/02/03 14:33:44;;;;;;;;;;;11.30;99.90;;;;;;5041841;28;19947;-70
2023/02/03 14:36:25;;;;;;;;;;;11.20;99.90;;;;;;5036606;28;19929;-72
2023/02/03 14:38:52;;;;;;;;;;;11.20;99.90;;;;;;5042169;28;20406;-70
2023/02/03 14:41:22;;;;;;;;;;;11.20;99.90;;;;;;5043488;28;19924;-71